East Ashtabula, Ohio
Current Conditions -  °F | °C
As of 7:53 PM on Monday 22 Dec 2014 (Local Time) from KHZY Reporting Station
Clear Clear  
Wind Chill: 27°   Ceiling: Unl
Heat Index: 35°   Visibility: 10mi
Dew Point: 27°   Wind: 10mph
Humidity: 72%   Direction: 130°SE
Pressure: 29.97"   Gusts: NA
Location:  41.8515°N, 80.79°W
Report Text: KHZY 230053Z AUTO 13009KT 10SM CLR 02/M03 A2997 RMK AO2 SLP157 T00171028
Loading
Personal Weather Stations






























Interactive Weather Map New forecast layout! Learn more

10-Day Weather Forecast

Advertisements
Track Severe Weather on mobile